createdAt,value
2023-02-14T05:15:12.262Z,20.40
2023-02-14T05:16:12.311Z,19.40
2023-02-14T05:17:12.257Z,22.20
2023-02-14T05:18:12.221Z,23.10
2023-02-14T05:19:12.209Z,24.10
2023-02-14T05:20:12.190Z,24.00
2023-02-14T05:21:12.195Z,22.10
2023-02-14T05:22:12.178Z,23.90
2023-02-14T05:23:12.159Z,22.50
2023-02-14T05:24:12.146Z,23.70
2023-02-14T05:25:12.141Z,24.90
2023-02-14T05:26:12.128Z,18.80
2023-02-14T05:27:12.135Z,20.40
2023-02-14T05:28:12.093Z,18.70
2023-02-14T05:29:12.083Z,18.00
2023-02-14T05:30:12.127Z,16.60
2023-02-14T05:31:12.144Z,15.20
2023-02-14T05:32:12.163Z,16.70
2023-02-14T05:33:12.037Z,16.30
2023-02-14T05:34:12.017Z,19.10
2023-02-14T05:35:12.004Z,22.30
2023-02-14T05:36:11.993Z,17.40
2023-02-14T05:37:12.001Z,18.40
2023-02-14T05:38:11.957Z,17.40
2023-02-14T05:39:11.964Z,16.90
2023-02-14T05:40:11.937Z,17.60
2023-02-14T05:41:11.950Z,17.50
2023-02-14T05:42:40.847Z,19.30
2023-02-14T05:43:40.846Z,19.80
2023-02-14T05:44:40.926Z,19.00
2023-02-14T05:45:40.864Z,16.50
2023-02-14T05:46:40.806Z,17.90
2023-02-14T05:47:40.798Z,18.70
2023-02-14T05:48:40.791Z,19.10
2023-02-14T05:49:40.769Z,23.20
2023-02-14T05:50:40.746Z,19.90
2023-02-14T05:51:40.775Z,21.20
2023-02-14T05:52:40.735Z,21.50
2023-02-14T05:53:40.719Z,20.10
2023-02-14T05:54:40.704Z,20.60
2023-02-14T05:55:40.688Z,22.60
2023-02-14T05:56:40.676Z,20.90
2023-02-14T05:57:40.686Z,20.10
2023-02-14T05:58:40.645Z,23.20
2023-02-14T05:59:40.636Z,22.30
2023-02-14T06:00:41.422Z,23.50
2023-02-14T06:01:40.626Z,25.30
2023-02-14T06:02:40.616Z,23.60
2023-02-14T06:03:40.612Z,29.60
2023-02-14T06:04:40.619Z,24.10
2023-02-14T06:05:40.574Z,24.50
2023-02-14T06:06:40.576Z,27.10
2023-02-14T06:07:40.564Z,27.20
2023-02-14T06:08:40.567Z,26.10
2023-02-14T06:09:40.527Z,71.80
2023-02-14T06:10:40.564Z,38.80
2023-02-14T06:11:40.556Z,47.00
2023-02-14T06:12:40.526Z,26.90
2023-02-14T06:13:40.476Z,30.10
2023-02-14T06:14:40.454Z,23.70
2023-02-14T06:15:40.452Z,25.40
2023-02-14T06:16:40.529Z,25.00
2023-02-14T06:17:40.433Z,22.20
2023-02-14T06:18:40.405Z,24.50
2023-02-14T06:19:40.395Z,24.80
2023-02-14T06:20:40.375Z,30.30
2023-02-14T06:21:40.367Z,29.10
2023-02-14T06:22:40.370Z,26.70
2023-02-14T06:23:40.345Z,29.60
2023-02-14T06:24:40.333Z,27.00
2023-02-14T06:25:40.333Z,28.00
2023-02-14T06:26:40.305Z,30.80
2023-02-14T06:27:40.325Z,36.20
2023-02-14T06:28:40.278Z,29.50
2023-02-14T06:29:40.272Z,31.80
2023-02-14T06:30:40.505Z,32.10
2023-02-14T06:31:40.340Z,29.40
2023-02-14T06:32:40.221Z,28.00
2023-02-14T06:33:40.232Z,32.50
2023-02-14T06:34:40.201Z,29.40
2023-02-14T06:35:40.192Z,28.40
2023-02-14T06:36:40.178Z,30.80
2023-02-14T06:37:40.171Z,28.70
2023-02-14T06:38:40.161Z,26.80
2023-02-14T06:39:40.139Z,25.50
2023-02-14T06:40:40.129Z,23.70
2023-02-14T06:41:40.140Z,28.90
2023-02-14T06:42:40.110Z,26.90
2023-02-14T06:43:40.103Z,31.70
2023-02-14T06:44:40.085Z,29.10
2023-02-14T06:45:40.073Z,26.40
2023-02-14T06:46:40.047Z,27.90
2023-02-14T06:47:40.040Z,24.70
2023-02-14T06:48:40.034Z,26.90
2023-02-14T06:49:40.019Z,22.30
2023-02-14T06:50:39.995Z,23.70
2023-02-14T06:51:40.000Z,22.60
2023-02-14T06:52:39.979Z,22.10
2023-02-14T06:53:39.977Z,26.70
2023-02-14T06:54:39.957Z,24.60
2023-02-14T06:55:40.214Z,24.60
2023-02-14T06:56:39.917Z,29.20
2023-02-14T06:57:39.918Z,25.10
2023-02-14T06:58:39.926Z,28.30
2023-02-14T06:59:39.901Z,23.20
2023-02-14T07:00:39.886Z,35.00
2023-02-14T07:01:39.893Z,64.00
2023-02-14T07:02:39.933Z,98.40
2023-02-14T07:03:39.858Z,81.50
2023-02-14T07:04:39.872Z,78.10
2023-02-14T07:05:39.818Z,56.00
2023-02-14T07:06:39.805Z,58.50
2023-02-14T07:07:39.791Z,51.90
2023-02-14T07:08:39.832Z,42.30
2023-02-14T07:09:39.751Z,38.10
2023-02-14T07:10:39.771Z,32.30
2023-02-14T07:11:39.737Z,25.80
2023-02-14T07:12:39.723Z,23.50
2023-02-14T07:13:39.720Z,21.30
2023-02-14T07:14:39.712Z,17.10
2023-02-14T07:15:39.768Z,18.90
2023-02-14T07:16:39.671Z,15.40
2023-02-14T07:17:39.660Z,14.70
2023-02-14T07:18:39.770Z,16.10
2023-02-14T07:19:39.640Z,14.90
2023-02-14T07:20:39.629Z,20.90
2023-02-14T07:21:39.610Z,17.30
2023-02-14T07:22:39.608Z,17.70
2023-02-14T07:23:39.629Z,17.20
2023-02-14T07:24:39.587Z,16.60
2023-02-14T07:25:39.578Z,16.50
2023-02-14T07:26:39.548Z,16.30
2023-02-14T07:27:39.537Z,18.30
2023-02-14T07:28:39.544Z,20.00
2023-02-14T07:29:39.517Z,15.70
2023-02-14T07:30:39.572Z,17.20
2023-02-14T07:31:39.575Z,15.50
2023-02-14T07:32:39.487Z,16.50
2023-02-14T07:33:39.457Z,17.80
2023-02-14T07:34:39.448Z,19.90
2023-02-14T07:35:39.440Z,17.80
2023-02-14T07:36:39.441Z,18.30
2023-02-14T07:37:39.430Z,18.80
2023-02-14T07:38:39.413Z,17.20
2023-02-14T07:39:39.376Z,18.00
2023-02-14T07:40:39.373Z,16.90
2023-02-14T07:41:39.354Z,17.60
2023-02-14T07:42:39.344Z,15.70
2023-02-14T07:43:39.334Z,20.10
2023-02-14T07:44:39.335Z,32.20
2023-02-14T07:45:39.305Z,25.40
2023-02-14T07:46:39.465Z,32.10
2023-02-14T07:47:39.280Z,25.70
2023-02-14T07:48:39.331Z,27.30
2023-02-14T07:49:39.249Z,29.30
2023-02-14T07:50:39.243Z,25.20
2023-02-14T07:51:39.224Z,29.40
2023-02-14T07:52:39.211Z,25.10
2023-02-14T07:53:39.240Z,23.60
2023-02-14T07:54:39.193Z,22.00
2023-02-14T07:55:39.180Z,18.70
2023-02-14T07:56:39.173Z,16.30
2023-02-14T07:57:39.142Z,17.50
2023-02-14T07:58:39.154Z,20.10
2023-02-14T07:59:39.121Z,20.30
2023-02-14T08:00:39.120Z,21.00
2023-02-14T08:01:39.120Z,21.50
2023-02-14T08:02:39.082Z,18.70
2023-02-14T08:03:39.093Z,20.90
2023-02-14T08:04:39.092Z,19.90
2023-02-14T08:05:39.038Z,20.60
2023-02-14T08:06:39.038Z,21.10
2023-02-14T08:07:39.021Z,23.40
2023-02-14T08:08:39.028Z,21.70
2023-02-14T08:09:39.010Z,22.60
2023-02-14T08:10:38.993Z,29.00
2023-02-14T08:11:39.012Z,33.40
2023-02-14T08:12:38.958Z,28.00
2023-02-14T08:13:38.935Z,29.70
2023-02-14T08:14:38.945Z,37.10
2023-02-14T08:15:38.919Z,35.60
2023-02-14T08:16:38.907Z,36.80
2023-02-14T08:17:38.889Z,37.90
2023-02-14T08:18:38.919Z,35.50
2023-02-14T08:19:38.920Z,29.60
2023-02-14T08:20:38.862Z,31.50
2023-02-14T08:21:38.845Z,29.20
2023-02-14T08:22:38.846Z,25.50
2023-02-14T08:23:38.804Z,21.10
2023-02-14T08:24:38.803Z,21.70
2023-02-14T08:25:38.780Z,19.40
2023-02-14T08:26:38.779Z,21.60
2023-02-14T08:27:38.774Z,17.60
2023-02-14T08:28:38.760Z,20.50
2023-02-14T08:29:38.748Z,17.00
2023-02-14T08:30:38.738Z,16.40
2023-02-14T08:31:38.735Z,18.70
2023-02-14T08:32:38.815Z,17.20
2023-02-14T08:33:38.683Z,15.40
2023-02-14T08:34:38.687Z,15.80
2023-02-14T08:35:38.659Z,15.70
2023-02-14T08:36:38.652Z,16.40
2023-02-14T08:37:38.626Z,14.20
2023-02-14T08:38:38.643Z,15.40
2023-02-14T08:39:38.854Z,15.90
2023-02-14T08:40:38.650Z,15.30
2023-02-14T08:41:38.585Z,16.60
2023-02-14T08:42:38.574Z,15.10
2023-02-14T08:43:38.555Z,16.10
2023-02-14T08:44:38.557Z,19.50
2023-02-14T08:45:38.584Z,17.60
2023-02-14T08:46:38.562Z,16.30
2023-02-14T08:47:38.559Z,14.50
2023-02-14T08:48:39.480Z,15.70
2023-02-14T08:49:38.498Z,14.00
2023-02-14T08:50:38.471Z,13.80
2023-02-14T08:51:38.456Z,18.00
2023-02-14T08:52:38.434Z,16.30
2023-02-14T08:53:38.449Z,16.10
2023-02-14T08:54:38.450Z,21.20
2023-02-14T08:55:38.457Z,15.70
2023-02-14T08:56:38.393Z,17.80
2023-02-14T08:57:38.386Z,14.60
2023-02-14T08:58:38.379Z,13.60
2023-02-14T08:59:38.368Z,13.30
2023-02-14T09:00:38.401Z,13.70
2023-02-14T09:01:38.327Z,13.30
2023-02-14T09:02:38.313Z,12.50
2023-02-14T09:03:38.664Z,13.30
2023-02-14T09:04:38.360Z,15.20
2023-02-14T09:05:38.283Z,13.40
2023-02-14T09:06:38.281Z,11.70
2023-02-14T09:07:38.252Z,11.30
2023-02-14T09:08:38.291Z,11.40
2023-02-14T09:09:38.231Z,12.30
2023-02-14T09:10:38.232Z,13.90
2023-02-14T09:11:38.192Z,12.30
2023-02-14T09:12:38.182Z,11.50
2023-02-14T09:13:38.185Z,12.40
2023-02-14T09:14:38.171Z,12.30
2023-02-14T09:15:38.164Z,12.70
2023-02-14T09:16:38.215Z,14.70
2023-02-14T09:17:38.149Z,13.20
2023-02-14T09:18:38.137Z,12.80
2023-02-14T09:19:38.108Z,12.70
2023-02-14T09:20:38.108Z,12.70
2023-02-14T09:21:38.118Z,12.70
2023-02-14T09:22:38.052Z,15.30
2023-02-14T09:23:38.057Z,12.20
2023-02-14T09:24:38.031Z,11.20
2023-02-14T09:25:38.044Z,13.60
2023-02-14T09:26:38.009Z,12.50
2023-02-14T09:27:38.012Z,16.30
2023-02-14T09:28:38.037Z,13.20
2023-02-14T09:29:38.001Z,12.30
2023-02-14T09:30:37.993Z,14.60
2023-02-14T09:31:38.089Z,13.00
2023-02-14T09:32:37.941Z,14.20
2023-02-14T09:33:37.951Z,14.70
2023-02-14T09:34:37.921Z,11.10
2023-02-14T09:35:37.928Z,11.10
2023-02-14T09:36:37.882Z,13.60
2023-02-14T09:37:37.900Z,13.00
2023-02-14T09:38:37.858Z,15.90
2023-02-14T09:39:38.085Z,16.90
2023-02-14T09:40:38.074Z,16.20
2023-02-14T09:41:38.049Z,13.60
2023-02-14T09:42:39.151Z,14.40
2023-02-14T09:43:39.037Z,12.60
2023-02-14T09:44:37.888Z,14.10
2023-02-14T09:45:38.103Z,13.00
2023-02-14T09:46:38.065Z,19.00
2023-02-14T09:47:38.019Z,16.20
2023-02-14T09:48:37.908Z,14.80
2023-02-14T09:49:38.145Z,15.90
2023-02-14T09:50:37.736Z,18.20
2023-02-14T09:51:37.679Z,17.60
2023-02-14T09:52:37.666Z,13.20
2023-02-14T09:53:37.664Z,13.90
2023-02-14T09:54:37.637Z,18.50
2023-02-14T09:55:37.637Z,15.90
2023-02-14T09:56:50.727Z,18.30
2023-02-14T09:57:38.652Z,14.30
2023-02-14T09:58:37.582Z,17.90
2023-02-14T09:59:37.613Z,16.90
2023-02-14T10:00:37.630Z,15.60
2023-02-14T10:01:37.627Z,18.10
2023-02-14T10:02:37.550Z,18.90
2023-02-14T10:04:33.404Z,14.70
2023-02-14T10:05:33.413Z,17.80
2023-02-14T10:06:33.375Z,16.90
2023-02-14T10:07:33.365Z,22.10
2023-02-14T10:08:33.372Z,18.10
2023-02-14T10:09:33.342Z,19.50
2023-02-14T10:10:33.337Z,18.90
2023-02-14T10:11:33.326Z,21.40
2023-02-14T10:12:33.299Z,17.80
2023-02-14T10:13:33.287Z,20.90
2023-02-14T10:14:33.284Z,19.90
2023-02-14T10:15:33.277Z,19.30
2023-02-14T10:16:33.319Z,18.10
2023-02-14T10:17:33.236Z,18.10
2023-02-14T10:18:33.228Z,20.70
2023-02-14T10:19:33.217Z,18.80
2023-02-14T10:20:33.208Z,19.90
2023-02-14T10:21:33.186Z,16.70
2023-02-14T10:22:33.183Z,13.80
2023-02-14T10:23:33.157Z,15.50
2023-02-14T10:24:33.143Z,31.00
2023-02-14T10:25:33.165Z,20.90
2023-02-14T10:26:33.117Z,21.50
2023-02-14T10:27:33.119Z,13.70
2023-02-14T10:28:33.085Z,14.20
2023-02-14T10:29:33.086Z,13.00
2023-02-14T10:30:33.203Z,12.00
2023-02-14T10:31:33.193Z,16.70
2023-02-14T10:32:33.036Z,11.80
2023-02-14T10:33:33.030Z,11.10
2023-02-14T10:34:33.009Z,13.60
2023-02-14T10:35:33.015Z,12.00
2023-02-14T10:36:32.992Z,11.20
2023-02-14T10:37:32.986Z,11.10
2023-02-14T10:38:32.966Z,14.30
2023-02-14T10:39:32.959Z,10.90
2023-02-14T10:40:32.956Z,12.50
2023-02-14T10:41:32.930Z,11.50
2023-02-14T10:42:32.908Z,12.60
2023-02-14T10:43:32.958Z,13.00
2023-02-14T10:44:32.885Z,17.30
2023-02-14T10:45:32.940Z,12.90
2023-02-14T10:46:32.877Z,14.00
2023-02-14T10:47:32.847Z,23.50
2023-02-14T10:48:32.835Z,12.70
2023-02-14T10:49:32.833Z,17.10
2023-02-14T10:50:32.808Z,15.50
2023-02-14T10:51:34.160Z,11.60
2023-02-14T10:52:32.787Z,16.50
2023-02-14T10:53:32.770Z,14.40
2023-02-14T10:54:32.778Z,14.70
2023-02-14T10:55:33.045Z,11.40
2023-02-14T10:56:32.849Z,13.20
2023-02-14T10:57:32.720Z,15.00
2023-02-14T10:58:32.727Z,16.40
2023-02-14T10:59:32.700Z,11.80
2023-02-14T11:00:32.681Z,13.20
2023-02-14T11:01:32.733Z,10.20
2023-02-14T11:02:32.654Z,12.70
2023-02-14T11:03:32.655Z,14.50
2023-02-14T11:04:32.630Z,10.50
2023-02-14T11:05:32.621Z,13.80
2023-02-14T11:06:32.618Z,13.40
2023-02-14T11:07:32.612Z,15.40
2023-02-14T11:08:32.572Z,12.70
2023-02-14T11:09:32.571Z,9.50
2023-02-14T11:10:32.553Z,13.40
2023-02-14T11:11:32.552Z,11.20
2023-02-14T11:12:32.543Z,10.60
2023-02-14T11:13:32.529Z,11.90
2023-02-14T11:14:32.526Z,12.00
2023-02-14T11:15:32.499Z,10.80
2023-02-14T11:16:32.507Z,9.80
2023-02-14T11:17:32.480Z,13.10
2023-02-14T11:18:32.450Z,10.40
2023-02-14T11:19:32.441Z,9.00
2023-02-14T11:20:32.428Z,11.60
2023-02-14T11:21:32.433Z,9.80
2023-02-14T11:22:32.392Z,10.40
2023-02-14T11:23:32.394Z,10.40
2023-02-14T11:24:32.372Z,7.30
2023-02-14T11:25:32.370Z,8.70
2023-02-14T11:26:32.374Z,9.70
2023-02-14T11:27:32.342Z,10.50
2023-02-14T11:28:32.324Z,8.50
2023-02-14T11:29:32.322Z,11.50
2023-02-14T11:30:32.416Z,10.00
2023-02-14T11:31:32.535Z,9.60
2023-02-14T11:32:32.270Z,9.50
2023-02-14T11:33:32.268Z,8.40
2023-02-14T11:34:32.272Z,10.30
2023-02-14T11:35:32.230Z,13.30
2023-02-14T11:36:32.247Z,10.40
2023-02-14T11:37:32.217Z,10.50
2023-02-14T11:38:32.191Z,9.50
2023-02-14T11:39:32.186Z,11.30
2023-02-14T11:40:32.166Z,9.60
2023-02-14T11:41:32.174Z,11.00
2023-02-14T11:42:32.143Z,11.80
2023-02-14T11:43:32.143Z,11.10
2023-02-14T11:44:32.125Z,9.90
2023-02-14T11:45:32.103Z,13.00
2023-02-14T11:46:33.974Z,10.60
2023-02-14T11:47:32.093Z,10.20
2023-02-14T11:48:38.207Z,8.50
2023-02-14T11:49:33.085Z,10.20
2023-02-14T11:50:32.044Z,9.70
2023-02-14T11:51:32.044Z,8.60
2023-02-14T11:52:32.015Z,10.00
2023-02-14T11:53:32.009Z,12.70
2023-02-14T11:54:31.996Z,8.40
2023-02-14T11:55:31.977Z,9.60
2023-02-14T11:56:31.976Z,12.50
2023-02-14T11:57:33.307Z,11.10
2023-02-14T11:58:31.938Z,10.70
2023-02-14T11:59:31.934Z,8.20
2023-02-14T12:00:31.921Z,10.50
2023-02-14T12:01:31.914Z,10.40
2023-02-14T12:02:31.929Z,10.20
2023-02-14T12:03:33.803Z,9.10
2023-02-14T12:04:32.819Z,8.60
2023-02-14T12:05:31.848Z,11.80
2023-02-14T12:06:31.858Z,19.40
2023-02-14T12:07:31.830Z,20.00
2023-02-14T12:08:31.819Z,11.10
2023-02-14T12:09:31.805Z,11.00
2023-02-14T12:10:31.797Z,9.20
2023-02-14T12:11:31.792Z,9.90
2023-02-14T12:12:31.785Z,9.60
2023-02-14T12:13:31.751Z,12.10
2023-02-14T12:14:31.735Z,11.70
2023-02-14T12:15:31.813Z,10.30
2023-02-14T12:16:31.740Z,9.70
2023-02-14T12:17:31.705Z,9.60
2023-02-14T12:18:31.691Z,10.50
2023-02-14T12:19:31.672Z,9.80
2023-02-14T12:20:31.701Z,11.40
2023-02-14T12:21:31.653Z,9.10
2023-02-14T12:22:31.645Z,11.40
2023-02-14T12:23:31.623Z,10.50
2023-02-14T12:24:31.617Z,10.00
2023-02-14T12:25:31.616Z,10.30
2023-02-14T12:26:31.609Z,8.30
2023-02-14T12:27:31.730Z,8.80
2023-02-14T12:28:31.571Z,14.40
2023-02-14T12:29:31.554Z,8.80
2023-02-14T12:30:31.534Z,10.30
2023-02-14T12:31:31.607Z,12.00
2023-02-14T12:32:31.515Z,9.80
2023-02-14T12:33:31.505Z,10.80
2023-02-14T12:34:31.491Z,11.40
2023-02-14T12:35:31.472Z,11.00
2023-02-14T12:36:31.450Z,13.30
2023-02-14T12:37:31.466Z,10.00
2023-02-14T12:38:31.431Z,8.40
2023-02-14T12:39:31.425Z,10.10
2023-02-14T12:40:31.409Z,10.40
2023-02-14T12:41:31.399Z,8.00
2023-02-14T12:42:31.391Z,8.40
2023-02-14T12:43:31.375Z,10.90
2023-02-14T12:44:31.362Z,9.60
2023-02-14T12:45:31.352Z,10.70
2023-02-14T12:46:31.346Z,10.20
2023-02-14T12:47:31.340Z,10.40
2023-02-14T12:48:31.313Z,10.40
2023-02-14T12:49:31.307Z,9.90
2023-02-14T12:50:31.282Z,8.70
2023-02-14T12:51:31.284Z,10.70
2023-02-14T12:52:31.288Z,11.70
2023-02-14T12:53:31.265Z,9.60
2023-02-14T12:54:31.254Z,10.60
2023-02-14T12:55:31.237Z,9.90
2023-02-14T12:56:31.235Z,8.20
2023-02-14T12:57:31.225Z,9.90
2023-02-14T12:58:31.198Z,9.30
2023-02-14T12:59:31.186Z,11.30
2023-02-14T13:00:31.175Z,11.50
2023-02-14T13:01:38.561Z,9.80
2023-02-14T13:02:32.248Z,11.30
2023-02-14T13:03:31.137Z,10.80
2023-02-14T13:04:31.126Z,8.90
2023-02-14T13:05:31.108Z,9.60
2023-02-14T13:06:31.140Z,11.50
2023-02-14T13:07:31.098Z,9.20
2023-02-14T13:08:31.089Z,9.00
2023-02-14T13:09:31.546Z,9.70
2023-02-14T13:10:31.309Z,10.30
2023-02-14T13:11:31.219Z,10.80
2023-02-14T13:12:31.038Z,10.40
2023-02-14T13:13:31.020Z,9.00
2023-02-14T13:14:31.118Z,10.20
2023-02-14T13:15:30.995Z,10.80
2023-02-14T13:16:31.557Z,9.30
2023-02-14T13:17:30.980Z,14.10
2023-02-14T13:18:31.084Z,9.70
2023-02-14T13:19:30.941Z,10.90
2023-02-14T13:20:31.105Z,10.70
2023-02-14T13:21:30.921Z,13.50
2023-02-14T13:22:30.979Z,11.50
2023-02-14T13:23:30.895Z,11.20
2023-02-14T13:24:30.873Z,14.00
2023-02-14T13:25:30.902Z,10.10
2023-02-14T13:26:31.347Z,10.10
2023-02-14T13:27:31.121Z,12.60
2023-02-14T13:28:30.824Z,11.50
2023-02-14T13:29:30.818Z,10.60
2023-02-14T13:30:31.074Z,9.60
2023-02-14T13:31:30.889Z,13.50
2023-02-14T13:32:30.783Z,10.90
2023-02-14T13:33:33.921Z,10.20
2023-02-14T13:34:30.737Z,11.60
2023-02-14T13:35:31.291Z,13.30
2023-02-14T13:36:31.015Z,11.40
2023-02-14T13:37:30.728Z,11.50
2023-02-14T13:38:30.696Z,11.70
2023-02-14T13:39:32.035Z,12.30
2023-02-14T13:40:30.668Z,10.20
2023-02-14T13:41:30.682Z,10.20
2023-02-14T13:42:30.648Z,10.00
2023-02-14T13:43:30.628Z,11.80
2023-02-14T13:44:30.619Z,12.50
2023-02-14T13:45:30.666Z,9.70
2023-02-14T13:46:30.650Z,12.50
2023-02-14T13:47:30.601Z,10.30
2023-02-14T13:48:30.858Z,11.00
2023-02-14T13:49:30.668Z,10.40
2023-02-14T13:50:30.548Z,11.70
2023-02-14T13:51:30.526Z,10.10
2023-02-14T13:52:30.625Z,9.70
2023-02-14T13:53:30.642Z,11.30
2023-02-14T13:54:31.106Z,11.50
2023-02-14T13:55:30.611Z,13.30
2023-02-14T13:56:30.462Z,9.80
2023-02-14T13:57:30.446Z,12.70
2023-02-14T13:58:30.875Z,11.40
2023-02-14T13:59:30.438Z,11.70
2023-02-14T14:00:30.426Z,14.10
2023-02-14T14:01:30.399Z,11.40
2023-02-14T14:02:31.040Z,11.70
2023-02-14T14:03:30.388Z,12.80
2023-02-14T14:04:30.453Z,12.60
2023-02-14T14:05:30.366Z,13.60
2023-02-14T14:06:30.348Z,12.50
2023-02-14T14:07:30.322Z,12.40
2023-02-14T14:08:30.652Z,11.80
2023-02-14T14:09:30.294Z,12.70
2023-02-14T14:10:30.284Z,13.70
2023-02-14T14:11:30.270Z,12.50
2023-02-14T14:12:30.257Z,13.10
2023-02-14T14:13:30.255Z,11.30
2023-02-14T14:14:30.233Z,13.70
2023-02-14T14:15:30.217Z,11.60
2023-02-14T14:16:30.230Z,11.80
2023-02-14T14:17:30.191Z,14.00
2023-02-14T14:18:30.198Z,12.50
2023-02-14T14:19:30.175Z,12.50
2023-02-14T14:20:30.158Z,13.00
2023-02-14T14:21:30.136Z,11.50
2023-02-14T14:22:30.126Z,11.70
2023-02-14T14:23:30.134Z,13.30
2023-02-14T14:24:30.099Z,11.20
2023-02-14T14:25:30.097Z,13.70
2023-02-14T14:26:30.067Z,11.90
2023-02-14T14:27:30.098Z,12.80
2023-02-14T14:28:30.068Z,10.00
2023-02-14T14:29:30.036Z,12.20
2023-02-14T14:30:30.058Z,14.00
2023-02-14T14:31:30.113Z,13.50
2023-02-14T14:32:29.999Z,13.20
2023-02-14T14:33:30.056Z,12.70
2023-02-14T14:34:29.965Z,13.30
2023-02-14T14:35:29.982Z,13.50
2023-02-14T14:36:29.937Z,13.40
2023-02-14T14:37:29.926Z,12.80
2023-02-14T14:38:29.939Z,14.10
2023-02-14T14:39:29.905Z,14.00
2023-02-14T14:40:29.896Z,13.30
2023-02-14T14:41:29.875Z,13.50
2023-02-14T14:42:29.867Z,13.00
2023-02-14T14:43:29.882Z,12.80
2023-02-14T14:44:29.866Z,12.90
2023-02-14T14:45:29.875Z,11.70
2023-02-14T14:46:29.823Z,13.00
2023-02-14T14:47:29.803Z,15.00
2023-02-14T14:48:29.796Z,13.50
2023-02-14T14:49:29.777Z,15.70
2023-02-14T14:50:29.775Z,12.90
2023-02-14T14:51:29.753Z,13.80
2023-02-14T14:52:29.737Z,14.90
2023-02-14T14:53:29.748Z,13.90
2023-02-14T14:54:29.712Z,12.50
2023-02-14T14:55:29.708Z,13.50
2023-02-14T14:56:29.700Z,14.30
2023-02-14T14:57:29.684Z,13.10
2023-02-14T14:58:29.660Z,13.90
2023-02-14T14:59:29.660Z,13.40
2023-02-14T15:00:29.649Z,14.20
2023-02-14T15:01:29.637Z,11.60
2023-02-14T15:02:29.611Z,13.80
2023-02-14T15:03:29.605Z,13.00
2023-02-14T15:04:29.680Z,13.80
2023-02-14T15:05:29.590Z,17.70
2023-02-14T15:06:29.552Z,14.00
2023-02-14T15:07:29.551Z,16.30
2023-02-14T15:08:29.533Z,15.50
2023-02-14T15:09:29.548Z,17.70
2023-02-14T15:10:29.524Z,14.80
2023-02-14T15:11:29.493Z,13.00
2023-02-14T15:12:29.480Z,15.50
2023-02-14T15:13:29.474Z,15.10
2023-02-14T15:14:29.468Z,12.60
2023-02-14T15:15:29.443Z,12.40
2023-02-14T15:16:29.572Z,17.30
2023-02-14T15:17:29.451Z,12.70
2023-02-14T15:18:29.422Z,14.40
2023-02-14T15:19:29.418Z,11.60
2023-02-14T15:20:29.381Z,15.20
2023-02-14T15:21:29.372Z,23.30
2023-02-14T15:22:29.354Z,14.60
2023-02-14T15:23:29.349Z,13.10
2023-02-14T15:24:29.357Z,14.20
2023-02-14T15:25:29.314Z,15.70
2023-02-14T15:26:29.305Z,15.50
2023-02-14T15:27:29.298Z,13.20
2023-02-14T15:28:29.463Z,14.30
2023-02-14T15:29:29.273Z,15.50
2023-02-14T15:30:29.476Z,14.50
2023-02-14T15:31:29.285Z,16.10
2023-02-14T15:32:29.227Z,14.40
2023-02-14T15:33:29.215Z,14.80
2023-02-14T15:34:29.211Z,17.80
2023-02-14T15:35:29.195Z,14.90
2023-02-14T15:36:29.166Z,16.40
2023-02-14T15:37:29.166Z,17.40
2023-02-14T15:38:29.151Z,14.30
2023-02-14T15:39:29.144Z,13.80
2023-02-14T15:40:29.123Z,16.40
2023-02-14T15:41:29.114Z,13.10
2023-02-14T15:42:30.060Z,15.50
2023-02-14T15:43:29.085Z,15.50
2023-02-14T15:44:29.074Z,14.20
2023-02-14T15:45:29.062Z,16.20
2023-02-14T15:46:29.138Z,16.50
2023-02-14T15:47:29.046Z,12.50
2023-02-14T15:48:29.016Z,15.20
2023-02-14T15:49:29.023Z,17.30
2023-02-14T15:50:28.993Z,17.60
2023-02-14T15:51:28.985Z,15.00
2023-02-14T15:52:28.964Z,16.30
2023-02-14T15:53:28.956Z,16.80
2023-02-14T15:54:28.936Z,15.80
2023-02-14T15:55:28.956Z,20.70
2023-02-14T15:56:28.930Z,14.40
2023-02-14T15:57:28.904Z,16.10
2023-02-14T15:58:28.880Z,13.50
2023-02-14T15:59:28.879Z,17.40
2023-02-14T16:00:28.869Z,14.20
2023-02-14T16:01:28.857Z,14.40
2023-02-14T16:02:28.877Z,14.60
2023-02-14T16:03:28.815Z,15.20
2023-02-14T16:04:35.858Z,16.20
2023-02-14T16:05:28.828Z,14.60
2023-02-14T16:06:28.777Z,16.70
2023-02-14T16:07:28.767Z,13.50
2023-02-14T16:08:28.760Z,15.80
2023-02-14T16:09:28.741Z,14.30
2023-02-14T16:10:28.739Z,15.80
2023-02-14T16:11:28.714Z,14.70
2023-02-14T16:12:28.694Z,13.50
2023-02-14T16:13:28.702Z,12.60
2023-02-14T16:14:28.683Z,13.90
2023-02-14T16:15:28.737Z,14.20
2023-02-14T16:16:28.643Z,17.20
2023-02-14T16:17:28.651Z,14.30
2023-02-14T16:18:28.617Z,16.70
2023-02-14T16:19:28.601Z,17.10
2023-02-14T16:20:28.601Z,12.40
2023-02-14T16:21:28.582Z,14.80
2023-02-14T16:22:28.567Z,17.50
2023-02-14T16:23:28.574Z,15.20
2023-02-14T16:24:28.530Z,16.30
2023-02-14T16:25:28.540Z,17.60
2023-02-14T16:26:28.521Z,15.80
2023-02-14T16:27:28.498Z,15.40
2023-02-14T16:28:28.504Z,16.80
2023-02-14T16:29:28.467Z,17.60
2023-02-14T16:30:28.526Z,18.90
2023-02-14T16:31:28.526Z,20.60
2023-02-14T16:32:28.533Z,15.40
2023-02-14T16:33:28.472Z,14.90
2023-02-14T16:34:28.420Z,20.40
2023-02-14T16:35:28.419Z,14.90
2023-02-14T16:36:28.388Z,17.20
2023-02-14T16:37:28.390Z,20.40
2023-02-14T16:38:28.360Z,16.20
2023-02-14T16:39:28.349Z,20.40
2023-02-14T16:40:28.340Z,15.80
2023-02-14T16:41:28.332Z,19.30
2023-02-14T16:42:28.300Z,17.20
2023-02-14T16:43:28.294Z,17.00
2023-02-14T16:44:28.279Z,17.70
2023-02-14T16:45:28.281Z,19.80
2023-02-14T16:46:28.298Z,15.80
2023-02-14T16:47:28.243Z,19.20
2023-02-14T16:48:28.227Z,15.50
2023-02-14T16:49:28.210Z,17.30
2023-02-14T16:50:28.228Z,15.70
2023-02-14T16:51:28.210Z,18.60
2023-02-14T16:52:28.180Z,15.30
2023-02-14T16:53:28.177Z,20.70
2023-02-14T16:54:28.157Z,21.90
2023-02-14T16:55:28.158Z,21.20
2023-02-14T16:56:28.120Z,18.80
2023-02-14T16:57:28.231Z,21.70
2023-02-14T16:58:28.100Z,20.80
2023-02-14T16:59:28.098Z,15.70
2023-02-14T17:00:28.077Z,15.10
2023-02-14T17:01:28.124Z,16.60
2023-02-14T17:02:28.143Z,17.40
2023-02-14T17:03:28.034Z,16.10
2023-02-14T17:04:28.007Z,16.30
2023-02-14T17:05:28.027Z,15.30
2023-02-14T17:06:27.995Z,17.10
2023-02-14T17:07:27.977Z,15.50
2023-02-14T17:08:27.961Z,15.40
2023-02-14T17:09:27.966Z,16.60
2023-02-14T17:10:27.953Z,14.50
2023-02-14T17:11:27.948Z,17.20
2023-02-14T17:12:27.917Z,16.00
2023-02-14T17:13:27.927Z,18.20
2023-02-14T17:14:27.888Z,16.10
2023-02-14T17:15:27.885Z,19.10
2023-02-14T17:16:27.879Z,20.20
2023-02-14T17:17:27.857Z,13.60
2023-02-14T17:18:27.846Z,16.90
2023-02-14T17:19:27.846Z,18.80
2023-02-14T17:20:27.847Z,16.70
2023-02-14T17:21:27.844Z,17.40
2023-02-14T17:22:27.788Z,16.40
2023-02-14T17:23:27.777Z,17.80
2023-02-14T17:24:27.766Z,18.50
2023-02-14T17:25:27.756Z,17.80
2023-02-14T17:26:27.751Z,15.50
2023-02-14T17:27:27.734Z,20.30
2023-02-14T17:28:27.718Z,17.40
2023-02-14T17:29:27.704Z,16.80
2023-02-14T17:30:27.846Z,19.80
2023-02-14T17:31:27.763Z,15.70
2023-02-14T17:32:27.740Z,18.70
2023-02-14T17:33:27.675Z,16.60
2023-02-14T17:34:27.675Z,18.80
2023-02-14T17:35:27.615Z,19.40
2023-02-14T17:36:27.635Z,17.80
2023-02-14T17:37:27.595Z,17.40
2023-02-14T17:38:27.595Z,13.80
2023-02-14T17:39:27.565Z,18.20
2023-02-14T17:40:27.562Z,20.30
2023-02-14T17:41:27.573Z,17.70
2023-02-14T17:42:27.535Z,16.40
2023-02-14T17:43:27.514Z,20.50
2023-02-14T17:44:27.524Z,18.90
2023-02-14T17:45:27.488Z,19.30
2023-02-14T17:46:27.544Z,18.20
2023-02-14T17:47:27.453Z,16.10
2023-02-14T17:48:27.453Z,16.00
2023-02-14T17:49:27.454Z,17.60
2023-02-14T17:50:27.432Z,19.80
2023-02-14T17:51:27.467Z,18.90
2023-02-14T17:52:27.410Z,19.50
2023-02-14T17:53:27.383Z,20.70
2023-02-14T17:54:27.373Z,23.00
2023-02-14T17:55:27.364Z,18.90
2023-02-14T17:56:27.367Z,22.70
2023-02-14T17:57:27.336Z,20.00
2023-02-14T17:58:27.323Z,18.70
2023-02-14T17:59:27.303Z,20.00
2023-02-14T18:00:27.303Z,15.80
2023-02-14T18:01:27.326Z,22.30
2023-02-14T18:02:27.328Z,48.10
2023-02-14T18:03:27.276Z,49.80
2023-02-14T18:04:27.250Z,25.00
2023-02-14T18:05:27.232Z,31.40
2023-02-14T18:06:27.243Z,57.80
2023-02-14T18:07:27.212Z,67.30
2023-02-14T18:08:27.214Z,76.30
2023-02-14T18:09:27.186Z,69.80
2023-02-14T18:10:27.181Z,38.20